»·PEaware :: N6984 L08-L35

N6984 :: L08-L35

FLIGHT INFORMATION

Flight Status: Arrived
Operator: Privately registered:
United States
More flights under this callsign
Pilot: Max G. (25157)
Aircraft: PIPER PA-28 CHEROKEE ARCHER
(P28A)
More flights by this aircraft type
Origin: L08 Borrego Valley
United States
Destination: L35 Big Bear City
United States
More flights between these airports :: More routes between these airports
Route: TIQMU KADYN
File this flight plan on PilotEdge
Remarks:
Altitude:
(Current/Filed)
8,500ft
Speed:
(Current/Filed)
110kts
Departed: 10-Dec-22 09:58 AM
Arrived: 10-Dec-22 10:48 AM
Distance/Time
Traveled:
66nm/0:50
Distance/Time
To Go:
Arrived

Flight Plot

Page will automatically refresh every two minutes.

Flight plan parsing failed; only flown route is shown


Map Options




Map Legend


Flown Route
Filed Route
Departure Airport
Arrival Airport
Navaid (VOR, NDB)
Fix

Horizontal Profiles

Position Reports

Time Latitude Longitude Heading Altitude Ground
Speed
10-Dec-22 09:44 33.257747 -116.325739 171 564ft 0kts
10-Dec-22 09:45 33.257747 -116.325739 171 564ft 0kts
10-Dec-22 09:46 33.257747 -116.325739 171 564ft 0kts
10-Dec-22 09:47 33.257747 -116.325739 171 564ft 0kts
10-Dec-22 09:48 33.257747 -116.325739 171 564ft 0kts
10-Dec-22 09:49 33.257747 -116.325739 171 564ft 0kts
10-Dec-22 09:50 33.257747 -116.325739 171 564ft 0kts
10-Dec-22 09:51 33.257747 -116.325739 171 564ft 0kts
10-Dec-22 09:52 33.257747 -116.325739 171 564ft 0kts
10-Dec-22 09:53 33.257748 -116.325739 171 564ft 0kts
10-Dec-22 09:54 33.257657 -116.325796 234 564ft 6kts
10-Dec-22 09:55 33.258150 -116.328941 43 555ft 0kts
10-Dec-22 09:56 33.258889 -116.328548 92 560ft 16kts
10-Dec-22 09:57 33.259100 -116.319091 88 744ft 79kts
10-Dec-22 09:58 33.266420 -116.312142 255 1478ft 87kts
10-Dec-22 09:59 33.269966 -116.338475 2 2137ft 94kts
10-Dec-22 10:00 33.291861 -116.349352 327 2867ft 84kts
10-Dec-22 10:01 33.312044 -116.363812 322 3501ft 87kts
10-Dec-22 10:02 33.329120 -116.382682 312 4616ft 82kts
10-Dec-22 10:03 33.346660 -116.401074 313 5295ft 85kts
10-Dec-22 10:04 33.363460 -116.420095 310 6012ft 80kts
10-Dec-22 10:05 33.378860 -116.439239 305 6674ft 80kts
10-Dec-22 10:06 33.394642 -116.459236 306 7271ft 82kts
10-Dec-22 10:07 33.409917 -116.478503 308 7397ft 93kts
10-Dec-22 10:08 33.428213 -116.497665 309 7784ft 85kts
10-Dec-22 10:09 33.445722 -116.517612 309 8018ft 92kts
10-Dec-22 10:10 33.460941 -116.540035 300 8329ft 86kts
10-Dec-22 10:11 33.475470 -116.563742 291 8484ft 91kts
10-Dec-22 10:12 33.492422 -116.585983 325 8720ft 98kts
10-Dec-22 10:13 33.492595 -116.614372 262 8802ft 93kts
10-Dec-22 10:14 33.500082 -116.644172 301 8636ft 105kts
10-Dec-22 10:15 33.518818 -116.670262 303 8537ft 97kts
10-Dec-22 10:16 33.536893 -116.693425 308 8603ft 95kts
10-Dec-22 10:17 33.556337 -116.714702 304 8653ft 93kts
10-Dec-22 10:18 33.574793 -116.737385 306 8736ft 95kts
10-Dec-22 10:19 33.593241 -116.760913 303 8724ft 96kts
10-Dec-22 10:20 33.612543 -116.782127 317 8730ft 92kts
10-Dec-22 10:21 33.629865 -116.803583 305 8631ft 89kts
10-Dec-22 10:22 33.647876 -116.824696 307 8477ft 91kts
10-Dec-22 10:23 33.666566 -116.845076 303 8629ft 91kts
10-Dec-22 10:24 33.686433 -116.864983 332 8820ft 106kts
10-Dec-22 10:25 33.715673 -116.873754 337 8794ft 106kts
10-Dec-22 10:26 33.740031 -116.889409 321 8820ft 101kts
10-Dec-22 10:27 33.766626 -116.903337 329 8817ft 105kts
10-Dec-22 10:28 33.793837 -116.916649 329 8826ft 105kts
10-Dec-22 10:29 33.821308 -116.930083 329 8917ft 107kts
10-Dec-22 10:30 33.848532 -116.943378 329 8803ft 101kts
10-Dec-22 10:31 33.875578 -116.956599 329 8789ft 105kts
10-Dec-22 10:32 33.902032 -116.969564 329 8873ft 102kts
10-Dec-22 10:34 33.928595 -116.982565 328 8890ft 101kts
10-Dec-22 10:35 33.954850 -116.995521 328 9067ft 102kts
10-Dec-22 10:36 33.981055 -117.008379 328 9372ft 103kts
10-Dec-22 10:37 34.007604 -117.021349 327 9682ft 104kts
10-Dec-22 10:38 34.034718 -117.034673 327 9888ft 107kts
10-Dec-22 10:39 34.062311 -117.048231 327 10023ft 110kts
10-Dec-22 10:40 34.090477 -117.062086 326 10134ft 110kts
10-Dec-22 10:41 34.122160 -117.069681 346 10077ft 120kts
10-Dec-22 10:42 34.157014 -117.059816 14 10067ft 129kts
10-Dec-22 10:43 34.184609 -117.031865 46 10261ft 135kts
10-Dec-22 10:44 34.209860 -116.997273 45 9981ft 140kts
10-Dec-22 10:45 34.236466 -116.963296 42 9438ft 135kts
10-Dec-22 10:46 34.260334 -116.928967 61 8519ft 126kts
10-Dec-22 10:47 34.263628 -116.888394 92 7440ft 125kts
10-Dec-22 10:48 34.263787 -116.856130 89 6813ft 30kts
10-Dec-22 10:49 34.262551 -116.853901 180 6822ft 0kts

Navigation Log

Ident Type
Flight plan parsing failed, navigation log unavailable